sensor_id;sensor_type;location;lat;lon;timestamp;pressure;altitude;pressure_sealevel;temperature;humidity
72925;BME280;61070;50.794;7.054;2022-07-17T00:01:01;101951.69;;;16.46;53.50
72925;BME280;61070;50.794;7.054;2022-07-17T00:03:27;101949.22;;;16.33;54.09
72925;BME280;61070;50.794;7.054;2022-07-17T00:05:52;101948.41;;;16.27;54.54
72925;BME280;61070;50.794;7.054;2022-07-17T00:08:18;101950.22;;;16.25;54.67
72925;BME280;61070;50.794;7.054;2022-07-17T00:10:43;101946.75;;;16.19;55.33
72925;BME280;61070;50.794;7.054;2022-07-17T00:13:10;101946.75;;;16.19;55.32
72925;BME280;61070;50.794;7.054;2022-07-17T00:15:35;101952.22;;;16.11;55.75
72925;BME280;61070;50.794;7.054;2022-07-17T00:18:01;101945.13;;;16.07;56.54
72925;BME280;61070;50.794;7.054;2022-07-17T00:20:29;101953.16;;;16.07;56.65
72925;BME280;61070;50.794;7.054;2022-07-17T00:22:54;101956.72;;;16.09;57.17
72925;BME280;61070;50.794;7.054;2022-07-17T00:25:20;101947.03;;;16.00;57.20
72925;BME280;61070;50.794;7.054;2022-07-17T00:27:46;101953.19;;;16.06;57.31
72925;BME280;61070;50.794;7.054;2022-07-17T00:30:11;101952.28;;;16.07;57.36
72925;BME280;61070;50.794;7.054;2022-07-17T00:32:38;101950.50;;;16.09;57.67
72925;BME280;61070;50.794;7.054;2022-07-17T00:35:03;101951.44;;;16.03;57.73
72925;BME280;61070;50.794;7.054;2022-07-17T00:37:29;101960.34;;;16.04;57.29
72925;BME280;61070;50.794;7.054;2022-07-17T00:39:54;101942.69;;;15.92;57.63
72925;BME280;61070;50.794;7.054;2022-07-17T00:42:20;101953.47;;;15.87;57.80
72925;BME280;61070;50.794;7.054;2022-07-17T00:44:46;101950.84;;;15.83;58.10
72925;BME280;61070;50.794;7.054;2022-07-17T00:47:13;101949.94;;;15.84;58.18
72925;BME280;61070;50.794;7.054;2022-07-17T00:49:39;101951.72;;;15.83;58.14
72925;BME280;61070;50.794;7.054;2022-07-17T00:52:05;101947.38;;;15.76;57.93
72925;BME280;61070;50.794;7.054;2022-07-17T00:54:34;101947.50;;;15.67;57.85
72925;BME280;61070;50.794;7.054;2022-07-17T00:57:00;101944.91;;;15.56;58.17
72925;BME280;61070;50.794;7.054;2022-07-17T00:59:26;101943.25;;;15.46;58.14
72925;BME280;61070;50.794;7.054;2022-07-17T01:01:52;101939.78;;;15.38;58.19
72925;BME280;61070;50.794;7.054;2022-07-17T01:04:18;101939.03;;;15.30;58.31
72925;BME280;61070;50.794;7.054;2022-07-17T01:06:43;101935.56;;;15.20;58.33
72925;BME280;61070;50.794;7.054;2022-07-17T01:09:11;101933.81;;;15.19;58.43
72925;BME280;61070;50.794;7.054;2022-07-17T01:11:36;101935.69;;;15.09;58.87
72925;BME280;61070;50.794;7.054;2022-07-17T01:14:02;101933.00;;;15.09;58.70
72925;BME280;61070;50.794;7.054;2022-07-17T01:16:29;101929.50;;;15.03;58.81
72925;BME280;61070;50.794;7.054;2022-07-17T01:18:55;101934.06;;;14.93;58.94
72925;BME280;61070;50.794;7.054;2022-07-17T01:21:21;101950.09;;;14.90;58.97
72925;BME280;61070;50.794;7.054;2022-07-17T01:23:46;101948.38;;;14.86;59.09
72925;BME280;61070;50.794;7.054;2022-07-17T01:26:12;101969.69;;;14.88;59.59
72925;BME280;61070;50.794;7.054;2022-07-17T01:28:37;101963.53;;;14.81;59.92
72925;BME280;61070;50.794;7.054;2022-07-17T01:31:03;101964.41;;;14.81;60.20
72925;BME280;61070;50.794;7.054;2022-07-17T01:33:28;101957.34;;;14.77;61.08
72925;BME280;61070;50.794;7.054;2022-07-17T01:35:54;101966.28;;;14.70;62.45
72925;BME280;61070;50.794;7.054;2022-07-17T01:38:19;101963.66;;;14.66;62.10
72925;BME280;61070;50.794;7.054;2022-07-17T01:40:44;101965.44;;;14.65;62.42
72925;BME280;61070;50.794;7.054;2022-07-17T01:43:10;101960.16;;;14.62;61.89
72925;BME280;61070;50.794;7.054;2022-07-17T01:45:35;101962.81;;;14.59;61.92
72925;BME280;61070;50.794;7.054;2022-07-17T01:48:01;101965.50;;;14.57;62.61
72925;BME280;61070;50.794;7.054;2022-07-17T01:50:26;101961.97;;;14.55;62.63
72925;BME280;61070;50.794;7.054;2022-07-17T01:52:51;101959.34;;;14.48;62.75
72925;BME280;61070;50.794;7.054;2022-07-17T01:55:17;101963.78;;;14.47;62.58
72925;BME280;61070;50.794;7.054;2022-07-17T01:57:43;101962.03;;;14.43;62.93
72925;BME280;61070;50.794;7.054;2022-07-17T02:00:12;101957.63;;;14.41;62.83
72925;BME280;61070;50.794;7.054;2022-07-17T02:02:39;101955.09;;;14.18;63.98
72925;BME280;61070;50.794;7.054;2022-07-17T02:05:05;101956.78;;;14.31;63.90
72925;BME280;61070;50.794;7.054;2022-07-17T02:07:30;101954.09;;;14.33;63.83
72925;BME280;61070;50.794;7.054;2022-07-17T02:09:57;101956.78;;;14.31;64.99
72925;BME280;61070;50.794;7.054;2022-07-17T02:12:22;101954.22;;;14.17;66.01
72925;BME280;61070;50.794;7.054;2022-07-17T02:14:47;101951.53;;;14.19;65.75
72925;BME280;61070;50.794;7.054;2022-07-17T02:17:13;101950.69;;;14.11;66.14
72925;BME280;61070;50.794;7.054;2022-07-17T02:19:38;101949.84;;;14.04;66.38
72925;BME280;61070;50.794;7.054;2022-07-17T02:22:03;101954.34;;;13.93;66.74
72925;BME280;61070;50.794;7.054;2022-07-17T02:24:29;101949.06;;;13.87;67.25
72925;BME280;61070;50.794;7.054;2022-07-17T02:26:54;101947.28;;;13.89;66.71
72925;BME280;61070;50.794;7.054;2022-07-17T02:29:19;101952.63;;;13.84;66.76
72925;BME280;61070;50.794;7.054;2022-07-17T02:31:44;101949.97;;;13.84;66.53
72925;BME280;61070;50.794;7.054;2022-07-17T02:34:10;101945.56;;;13.82;66.50
72925;BME280;61070;50.794;7.054;2022-07-17T02:36:35;101947.34;;;13.77;67.42
72925;BME280;61070;50.794;7.054;2022-07-17T02:39:01;101950.94;;;13.71;67.58
72925;BME280;61070;50.794;7.054;2022-07-17T02:41:26;101958.94;;;13.63;68.11
72925;BME280;61070;50.794;7.054;2022-07-17T02:43:52;101956.31;;;13.60;67.89
72925;BME280;61070;50.794;7.054;2022-07-17T02:46:17;101968.72;;;13.61;67.76
72925;BME280;61070;50.794;7.054;2022-07-17T02:48:42;101967.81;;;13.58;67.72
72925;BME280;61070;50.794;7.054;2022-07-17T02:51:09;101968.78;;;13.49;67.85
72925;BME280;61070;50.794;7.054;2022-07-17T02:53:34;101966.13;;;13.40;67.97
72925;BME280;61070;50.794;7.054;2022-07-17T02:55:59;101959.91;;;13.44;67.58
72925;BME280;61070;50.794;7.054;2022-07-17T02:58:25;101959.91;;;13.41;67.61
72925;BME280;61070;50.794;7.054;2022-07-17T03:00:50;101961.69;;;13.42;67.45
72925;BME280;61070;50.794;7.054;2022-07-17T03:03:16;101961.69;;;13.40;67.37
72925;BME280;61070;50.794;7.054;2022-07-17T03:05:41;101965.25;;;13.33;67.57
72925;BME280;61070;50.794;7.054;2022-07-17T03:08:07;101953.75;;;13.30;67.69
72925;BME280;61070;50.794;7.054;2022-07-17T03:10:32;101951.09;;;13.27;67.86
72925;BME280;61070;50.794;7.054;2022-07-17T03:12:57;101952.88;;;13.20;68.40
72925;BME280;61070;50.794;7.054;2022-07-17T03:15:23;101950.22;;;13.09;68.52
72925;BME280;61070;50.794;7.054;2022-07-17T03:17:48;101953.75;;;13.15;68.19
72925;BME280;61070;50.794;7.054;2022-07-17T03:20:13;101958.19;;;13.14;68.17
72925;BME280;61070;50.794;7.054;2022-07-17T03:22:39;101960.84;;;13.14;68.46
72925;BME280;61070;50.794;7.054;2022-07-17T03:25:04;101955.50;;;13.12;68.27
72925;BME280;61070;50.794;7.054;2022-07-17T03:27:30;101966.16;;;13.09;68.45
72925;BME280;61070;50.794;7.054;2022-07-17T03:29:56;101966.19;;;13.06;68.77
72925;BME280;61070;50.794;7.054;2022-07-17T03:32:21;101958.22;;;13.03;68.52
72925;BME280;61070;50.794;7.054;2022-07-17T03:34:47;101961.75;;;13.05;68.44
72925;BME280;61070;50.794;7.054;2022-07-17T03:37:12;101967.97;;;13.03;68.24
72925;BME280;61070;50.794;7.054;2022-07-17T03:39:39;101967.09;;;12.93;69.12
72925;BME280;61070;50.794;7.054;2022-07-17T03:42:04;101967.06;;;12.90;69.26
72925;BME280;61070;50.794;7.054;2022-07-17T03:44:29;101964.41;;;12.90;69.12
72925;BME280;61070;50.794;7.054;2022-07-17T03:46:55;101965.31;;;12.92;68.91
72925;BME280;61070;50.794;7.054;2022-07-17T03:49:21;101964.44;;;12.86;68.90
72925;BME280;61070;50.794;7.054;2022-07-17T03:51:46;101979.50;;;12.87;69.28
72925;BME280;61070;50.794;7.054;2022-07-17T03:54:12;101969.75;;;12.86;68.61
72925;BME280;61070;50.794;7.054;2022-07-17T03:56:37;101973.28;;;12.86;68.35
72925;BME280;61070;50.794;7.054;2022-07-17T03:59:02;101983.94;;;12.86;68.30
72925;BME280;61070;50.794;7.054;2022-07-17T04:01:28;101988.38;;;12.70;69.15
72925;BME280;61070;50.794;7.054;2022-07-17T04:03:53;101983.94;;;12.75;68.89
72925;BME280;61070;50.794;7.054;2022-07-17T04:06:18;101991.91;;;12.77;69.35
72925;BME280;61070;50.794;7.054;2022-07-17T04:08:44;101991.03;;;12.87;68.71
72925;BME280;61070;50.794;7.054;2022-07-17T04:11:09;101992.81;;;12.91;68.58
72925;BME280;61070;50.794;7.054;2022-07-17T04:13:35;101999.88;;;12.98;68.32
72925;BME280;61070;50.794;7.054;2022-07-17T04:16:00;102003.41;;;13.02;68.02
72925;BME280;61070;50.794;7.054;2022-07-17T04:18:31;102001.66;;;13.07;68.01
72925;BME280;61070;50.794;7.054;2022-07-17T04:21:00;102004.31;;;13.10;67.67
72925;BME280;61070;50.794;7.054;2022-07-17T04:23:26;102010.53;;;13.21;67.57
72925;BME280;61070;50.794;7.054;2022-07-17T04:25:52;102014.06;;;13.14;68.03
72925;BME280;61070;50.794;7.054;2022-07-17T04:28:17;102007.84;;;13.12;68.21
72925;BME280;61070;50.794;7.054;2022-07-17T04:30:43;102002.50;;;13.12;68.44
72925;BME280;61070;50.794;7.054;2022-07-17T04:33:08;102002.53;;;13.23;68.11
72925;BME280;61070;50.794;7.054;2022-07-17T04:35:34;102001.66;;;13.22;68.39
72925;BME280;61070;50.794;7.054;2022-07-17T04:38:01;101988.34;;;13.31;67.57
72925;BME280;61070;50.794;7.054;2022-07-17T04:40:26;101986.53;;;13.33;67.00
72925;BME280;61070;50.794;7.054;2022-07-17T04:42:52;101991.88;;;13.39;67.13
72925;BME280;61070;50.794;7.054;2022-07-17T04:45:17;101996.28;;;13.44;66.98
72925;BME280;61070;50.794;7.054;2022-07-17T04:47:42;101999.84;;;13.33;67.42
72925;BME280;61070;50.794;7.054;2022-07-17T04:50:08;101999.88;;;13.17;68.65
72925;BME280;61070;50.794;7.054;2022-07-17T04:52:34;101993.69;;;13.25;68.59
72925;BME280;61070;50.794;7.054;2022-07-17T04:54:59;101993.66;;;13.15;69.40
72925;BME280;61070;50.794;7.054;2022-07-17T04:57:25;101991.00;;;13.11;69.75
72925;BME280;61070;50.794;7.054;2022-07-17T04:59:50;101998.09;;;13.23;69.52
72925;BME280;61070;50.794;7.054;2022-07-17T05:02:16;101991.88;;;13.17;69.82
72925;BME280;61070;50.794;7.054;2022-07-17T05:04:41;101999.88;;;13.23;69.67
72925;BME280;61070;50.794;7.054;2022-07-17T05:07:06;102002.50;;;13.41;69.60
72925;BME280;61070;50.794;7.054;2022-07-17T05:09:33;102004.28;;;13.48;69.08
72925;BME280;61070;50.794;7.054;2022-07-17T05:11:58;102002.47;;;13.61;68.01
72925;BME280;61070;50.794;7.054;2022-07-17T05:14:23;102005.06;;;13.70;67.62
72925;BME280;61070;50.794;7.054;2022-07-17T05:16:49;102007.78;;;13.59;67.18
72925;BME280;61070;50.794;7.054;2022-07-17T05:19:14;102009.53;;;13.63;67.44
72925;BME280;61070;50.794;7.054;2022-07-17T05:21:40;102015.78;;;13.53;67.52
72925;BME280;61070;50.794;7.054;2022-07-17T05:24:05;102013.03;;;13.78;67.34
72925;BME280;61070;50.794;7.054;2022-07-17T05:26:30;102016.56;;;13.78;67.29
72925;BME280;61070;50.794;7.054;2022-07-17T05:28:56;102019.19;;;13.93;67.30
72925;BME280;61070;50.794;7.054;2022-07-17T05:31:21;102016.44;;;14.04;67.12
72925;BME280;61070;50.794;7.054;2022-07-17T05:33:46;102017.34;;;14.03;67.28
72925;BME280;61070;50.794;7.054;2022-07-17T05:36:12;102024.38;;;14.22;66.37
72925;BME280;61070;50.794;7.054;2022-07-17T05:38:37;102028.78;;;14.28;66.12
72925;BME280;61070;50.794;7.054;2022-07-17T05:41:03;102038.47;;;14.43;65.50
72925;BME280;61070;50.794;7.054;2022-07-17T05:43:28;102038.44;;;14.52;65.69
72925;BME280;61070;50.794;7.054;2022-07-17T05:45:55;102042.00;;;14.52;65.49
72925;BME280;61070;50.794;7.054;2022-07-17T05:48:21;102049.97;;;14.54;65.30
72925;BME280;61070;50.794;7.054;2022-07-17T05:50:46;102044.59;;;14.63;65.00
72925;BME280;61070;50.794;7.054;2022-07-17T05:53:11;102049.88;;;14.69;64.64
72925;BME280;61070;50.794;7.054;2022-07-17T05:55:37;102043.66;;;14.69;64.79
72925;BME280;61070;50.794;7.054;2022-07-17T05:58:03;102041.75;;;14.86;64.60
72925;BME280;61070;50.794;7.054;2022-07-17T06:00:29;102039.22;;;14.66;64.51
72925;BME280;61070;50.794;7.054;2022-07-17T06:02:54;102046.28;;;14.72;64.90
72925;BME280;61070;50.794;7.054;2022-07-17T06:05:20;102045.25;;;14.91;63.35
72925;BME280;61070;50.794;7.054;2022-07-17T06:07:45;102048.72;;;15.01;62.93
72925;BME280;61070;50.794;7.054;2022-07-17T06:10:10;102051.25;;;15.19;63.22
72925;BME280;61070;50.794;7.054;2022-07-17T06:12:36;102052.09;;;15.23;62.65
72925;BME280;61070;50.794;7.054;2022-07-17T06:15:01;102046.69;;;15.27;62.24
72925;BME280;61070;50.794;7.054;2022-07-17T06:17:26;102055.56;;;15.32;62.29
72925;BME280;61070;50.794;7.054;2022-07-17T06:19:53;102054.44;;;15.56;61.74
72925;BME280;61070;50.794;7.054;2022-07-17T06:22:19;102056.19;;;15.63;61.09
72925;BME280;61070;50.794;7.054;2022-07-17T06:24:45;102056.94;;;15.75;61.45
72925;BME280;61070;50.794;7.054;2022-07-17T06:27:10;102057.66;;;15.89;60.73
72925;BME280;61070;50.794;7.054;2022-07-17T06:29:35;102052.53;;;15.70;60.68
72925;BME280;61070;50.794;7.054;2022-07-17T06:32:01;102041.50;;;15.96;60.59
72925;BME280;61070;50.794;7.054;2022-07-17T06:34:26;102049.56;;;15.93;60.18
72925;BME280;61070;50.794;7.054;2022-07-17T06:36:51;102064.06;;;15.74;60.61
72925;BME280;61070;50.794;7.054;2022-07-17T06:39:17;102050.44;;;15.97;60.22
72925;BME280;61070;50.794;7.054;2022-07-17T06:41:42;102048.50;;;16.10;59.14
72925;BME280;61070;50.794;7.054;2022-07-17T06:44:07;102051.03;;;16.19;59.29
72925;BME280;61070;50.794;7.054;2022-07-17T06:46:33;102050.16;;;16.17;59.43
72925;BME280;61070;50.794;7.054;2022-07-17T06:48:58;102052.66;;;16.32;59.19
72925;BME280;61070;50.794;7.054;2022-07-17T06:51:23;102045.13;;;16.58;58.55
72925;BME280;61070;50.794;7.054;2022-07-17T06:53:49;102045.97;;;16.60;57.53
72925;BME280;61070;50.794;7.054;2022-07-17T06:56:14;102039.59;;;16.72;57.24
72925;BME280;61070;50.794;7.054;2022-07-17T06:58:39;102034.09;;;16.81;56.92
72925;BME280;61070;50.794;7.054;2022-07-17T07:01:04;102020.31;;;17.04;57.33
72925;BME280;61070;50.794;7.054;2022-07-17T07:03:30;102022.22;;;16.96;57.02
72925;BME280;61070;50.794;7.054;2022-07-17T07:05:55;102023.09;;;17.00;56.93
72925;BME280;61070;50.794;7.054;2022-07-17T07:08:20;102017.44;;;17.15;56.48
72925;BME280;61070;50.794;7.054;2022-07-17T07:10:46;102012.63;;;17.35;55.86
72925;BME280;61070;50.794;7.054;2022-07-17T07:13:11;102015.84;;;17.53;55.77
72925;BME280;61070;50.794;7.054;2022-07-17T07:15:37;102010.66;;;17.45;55.06
72925;BME280;61070;50.794;7.054;2022-07-17T07:18:03;102015.44;;;17.74;55.02
72925;BME280;61070;50.794;7.054;2022-07-17T07:20:28;102018.06;;;17.77;54.69
72925;BME280;61070;50.794;7.054;2022-07-17T07:22:54;102018.53;;;17.97;54.03
72925;BME280;61070;50.794;7.054;2022-07-17T07:25:19;102016.88;;;17.92;54.02
72925;BME280;61070;50.794;7.054;2022-07-17T07:27:44;102017.91;;;18.26;52.95
72925;BME280;61070;50.794;7.054;2022-07-17T07:30:10;102012.41;;;18.31;52.71
72925;BME280;61070;50.794;7.054;2022-07-17T07:32:38;102015.09;;;18.31;52.79
72925;BME280;61070;50.794;7.054;2022-07-17T07:35:06;102011.63;;;18.66;51.89
72925;BME280;61070;50.794;7.054;2022-07-17T07:37:32;102008.56;;;18.43;51.11
72925;BME280;61070;50.794;7.054;2022-07-17T07:39:57;102015.84;;;18.38;51.14
72925;BME280;61070;50.794;7.054;2022-07-17T07:42:23;101999.81;;;18.73;51.07
72925;BME280;61070;50.794;7.054;2022-07-17T07:44:48;102001.50;;;18.77;50.44
72925;BME280;61070;50.794;7.054;2022-07-17T07:47:13;102000.53;;;19.14;49.57
72925;BME280;61070;50.794;7.054;2022-07-17T07:49:39;101990.81;;;19.10;49.88
72925;BME280;61070;50.794;7.054;2022-07-17T07:52:04;101997.03;;;19.44;49.52
72925;BME280;61070;50.794;7.054;2022-07-17T07:54:31;101989.63;;;19.53;48.75
72925;BME280;61070;50.794;7.054;2022-07-17T07:56:57;101993.31;;;19.50;47.93
72925;BME280;61070;50.794;7.054;2022-07-17T07:59:23;101998.53;;;19.56;47.69
72925;BME280;61070;50.794;7.054;2022-07-17T08:01:48;101998.78;;;19.45;47.66
72925;BME280;61070;50.794;7.054;2022-07-17T08:04:13;102000.22;;;19.59;47.38
72925;BME280;61070;50.794;7.054;2022-07-17T08:06:39;101993.91;;;19.61;47.73
72925;BME280;61070;50.794;7.054;2022-07-17T08:09:05;101994.84;;;19.90;47.18
72925;BME280;61070;50.794;7.054;2022-07-17T08:11:30;101988.66;;;20.17;46.47
72925;BME280;61070;50.794;7.054;2022-07-17T08:13:55;101987.78;;;20.45;45.37
72925;BME280;61070;50.794;7.054;2022-07-17T08:16:21;101995.63;;;20.52;45.09
72925;BME280;61070;50.794;7.054;2022-07-17T08:18:46;101994.41;;;20.62;44.75
72925;BME280;61070;50.794;7.054;2022-07-17T08:21:11;101988.81;;;20.69;44.40
72925;BME280;61070;50.794;7.054;2022-07-17T08:23:36;101996.38;;;21.10;44.16
72925;BME280;61070;50.794;7.054;2022-07-17T08:26:02;102007.34;;;21.04;43.25
72925;BME280;61070;50.794;7.054;2022-07-17T08:28:27;102002.78;;;21.33;43.19
72925;BME280;61070;50.794;7.054;2022-07-17T08:30:52;102004.91;;;21.23;42.26
72925;BME280;61070;50.794;7.054;2022-07-17T08:33:18;102007.81;;;20.90;42.60
72925;BME280;61070;50.794;7.054;2022-07-17T08:35:43;102019.38;;;20.94;42.66
72925;BME280;61070;50.794;7.054;2022-07-17T08:38:09;102028.31;;;20.96;43.08
72925;BME280;61070;50.794;7.054;2022-07-17T08:40:36;102028.59;;;21.13;42.48
72925;BME280;61070;50.794;7.054;2022-07-17T08:43:04;102015.16;;;21.12;42.02
72925;BME280;61070;50.794;7.054;2022-07-17T08:45:30;102020.09;;;21.50;41.21
72925;BME280;61070;50.794;7.054;2022-07-17T08:47:55;102016.97;;;21.63;40.96
72925;BME280;61070;50.794;7.054;2022-07-17T08:50:24;102009.50;;;21.46;40.43
72925;BME280;61070;50.794;7.054;2022-07-17T08:52:49;102012.50;;;21.62;40.55
72925;BME280;61070;50.794;7.054;2022-07-17T08:55:15;102008.53;;;21.72;40.02
72925;BME280;61070;50.794;7.054;2022-07-17T08:57:42;102007.97;;;21.87;39.97
72925;BME280;61070;50.794;7.054;2022-07-17T09:00:19;102013.00;;;21.96;39.46
72925;BME280;61070;50.794;7.054;2022-07-17T09:03:04;102016.19;;;21.59;39.33
72925;BME280;61070;50.794;7.054;2022-07-17T09:05:33;102020.09;;;21.75;39.49
72925;BME280;61070;50.794;7.054;2022-07-17T09:07:59;102016.63;;;22.20;39.57
72925;BME280;61070;50.794;7.054;2022-07-17T09:10:33;102019.84;;;22.06;37.18
72925;BME280;61070;50.794;7.054;2022-07-17T09:13:00;102015.91;;;22.15;36.34
72925;BME280;61070;50.794;7.054;2022-07-17T09:15:26;102019.19;;;22.23;36.85
72925;BME280;61070;50.794;7.054;2022-07-17T09:17:54;102027.19;;;22.48;36.34
72925;BME280;61070;50.794;7.054;2022-07-17T09:20:20;102015.75;;;22.42;36.12
72925;BME280;61070;50.794;7.054;2022-07-17T09:22:58;102021.50;;;22.56;36.18
72925;BME280;61070;50.794;7.054;2022-07-17T09:25:35;102019.91;;;22.72;35.87
72925;BME280;61070;50.794;7.054;2022-07-17T09:28:02;102016.84;;;23.03;35.46
72925;BME280;61070;50.794;7.054;2022-07-17T09:30:28;102014.53;;;23.14;34.52
72925;BME280;61070;50.794;7.054;2022-07-17T09:32:54;102009.63;;;23.44;34.19
72925;BME280;61070;50.794;7.054;2022-07-17T09:35:21;102009.88;;;23.38;34.70
72925;BME280;61070;50.794;7.054;2022-07-17T09:37:47;102001.44;;;23.46;33.86
72925;BME280;61070;50.794;7.054;2022-07-17T09:40:14;102008.66;;;23.66;33.58
72925;BME280;61070;50.794;7.054;2022-07-17T09:42:58;102006.44;;;23.35;34.23
72925;BME280;61070;50.794;7.054;2022-07-17T09:45:24;102000.13;;;23.54;34.31
72925;BME280;61070;50.794;7.054;2022-07-17T09:47:51;102006.09;;;23.63;32.93
72925;BME280;61070;50.794;7.054;2022-07-17T09:50:18;102002.72;;;23.58;33.36
72925;BME280;61070;50.794;7.054;2022-07-17T09:52:44;102010.38;;;23.68;33.84
72925;BME280;61070;50.794;7.054;2022-07-17T09:55:10;102002.53;;;23.62;33.81
72925;BME280;61070;50.794;7.054;2022-07-17T09:57:40;102009.25;;;23.93;33.56
72925;BME280;61070;50.794;7.054;2022-07-17T10:00:07;102004.69;;;24.12;32.93
72925;BME280;61070;50.794;7.054;2022-07-17T10:02:39;102001.53;;;24.21;32.86
72925;BME280;61070;50.794;7.054;2022-07-17T10:05:05;102001.00;;;23.75;33.01
72925;BME280;61070;50.794;7.054;2022-07-17T10:07:33;101987.00;;;23.66;32.31
72925;BME280;61070;50.794;7.054;2022-07-17T10:09:59;101995.47;;;23.97;31.24
72925;BME280;61070;50.794;7.054;2022-07-17T10:12:25;101999.91;;;24.37;31.43
72925;BME280;61070;50.794;7.054;2022-07-17T10:14:50;101996.69;;;24.65;30.70
72925;BME280;61070;50.794;7.054;2022-07-17T10:17:20;102002.44;;;24.41;30.90
72925;BME280;61070;50.794;7.054;2022-07-17T10:19:50;102001.75;;;24.73;31.03
72925;BME280;61070;50.794;7.054;2022-07-17T10:22:17;102001.34;;;24.81;29.79
72925;BME280;61070;50.794;7.054;2022-07-17T10:27:24;102005.41;;;24.72;29.64
72925;BME280;61070;50.794;7.054;2022-07-17T10:30:26;102003.56;;;24.90;29.61
72925;BME280;61070;50.794;7.054;2022-07-17T10:32:57;101996.03;;;24.96;28.94
72925;BME280;61070;50.794;7.054;2022-07-17T10:35:24;101998.13;;;25.26;28.36
72925;BME280;61070;50.794;7.054;2022-07-17T10:37:49;102004.53;;;25.58;27.77
72925;BME280;61070;50.794;7.054;2022-07-17T10:40:23;101993.44;;;25.63;27.04
72925;BME280;61070;50.794;7.054;2022-07-17T10:48:12;101991.91;;;26.07;24.97
72925;BME280;61070;50.794;7.054;2022-07-17T10:50:40;101994.44;;;25.95;26.18
72925;BME280;61070;50.794;7.054;2022-07-17T10:55:59;101985.00;;;26.18;24.16
72925;BME280;61070;50.794;7.054;2022-07-17T10:58:34;101983.41;;;26.13;24.59
72925;BME280;61070;50.794;7.054;2022-07-17T11:01:10;101975.56;;;25.92;23.94
72925;BME280;61070;50.794;7.054;2022-07-17T11:03:48;101978.16;;;25.95;22.64
72925;BME280;61070;50.794;7.054;2022-07-17T11:06:15;101979.94;;;25.78;23.41
72925;BME280;61070;50.794;7.054;2022-07-17T11:09:02;101979.75;;;25.81;23.48
72925;BME280;61070;50.794;7.054;2022-07-17T11:11:42;101978.25;;;26.09;23.21
72925;BME280;61070;50.794;7.054;2022-07-17T11:16:48;101986.91;;;26.31;25.26
72925;BME280;61070;50.794;7.054;2022-07-17T11:19:37;101979.09;;;26.25;25.88
72925;BME280;61070;50.794;7.054;2022-07-17T11:22:08;101978.44;;;26.37;25.18
72925;BME280;61070;50.794;7.054;2022-07-17T11:24:46;101976.75;;;26.19;24.92
72925;BME280;61070;50.794;7.054;2022-07-17T11:27:18;101978.97;;;26.44;24.29
72925;BME280;61070;50.794;7.054;2022-07-17T11:29:45;101980.50;;;25.85;23.64
72925;BME280;61070;50.794;7.054;2022-07-17T11:32:10;101966.50;;;26.24;23.08
72925;BME280;61070;50.794;7.054;2022-07-17T11:34:35;101972.53;;;26.61;23.87
72925;BME280;61070;50.794;7.054;2022-07-17T11:37:03;101971.41;;;26.33;24.06
72925;BME280;61070;50.794;7.054;2022-07-17T11:39:46;101970.28;;;26.83;23.64
72925;BME280;61070;50.794;7.054;2022-07-17T11:42:13;101960.53;;;26.65;22.92
72925;BME280;61070;50.794;7.054;2022-07-17T11:44:39;101959.78;;;26.77;23.30
72925;BME280;61070;50.794;7.054;2022-07-17T11:47:05;101965.78;;;26.68;23.98
72925;BME280;61070;50.794;7.054;2022-07-17T11:49:36;101968.16;;;25.62;24.78
72925;BME280;61070;50.794;7.054;2022-07-17T11:55:07;101956.41;;;26.58;23.57
72925;BME280;61070;50.794;7.054;2022-07-17T11:57:47;101963.84;;;27.00;23.40
72925;BME280;61070;50.794;7.054;2022-07-17T12:00:15;101958.00;;;26.92;22.98
72925;BME280;61070;50.794;7.054;2022-07-17T12:02:41;101954.94;;;26.52;23.04
72925;BME280;61070;50.794;7.054;2022-07-17T12:05:07;101947.03;;;26.63;23.36
72925;BME280;61070;50.794;7.054;2022-07-17T12:07:44;101941.50;;;26.49;22.95
72925;BME280;61070;50.794;7.054;2022-07-17T12:10:17;101949.75;;;26.48;23.15
72925;BME280;61070;50.794;7.054;2022-07-17T12:12:57;101946.59;;;26.55;23.24
72925;BME280;61070;50.794;7.054;2022-07-17T12:18:00;101950.47;;;25.71;23.09
72925;BME280;61070;50.794;7.054;2022-07-17T12:20:25;101952.56;;;26.46;22.66
72925;BME280;61070;50.794;7.054;2022-07-17T12:22:51;101953.56;;;26.75;22.25
72925;BME280;61070;50.794;7.054;2022-07-17T12:25:27;101947.88;;;26.94;22.02
72925;BME280;61070;50.794;7.054;2022-07-17T12:27:53;101946.91;;;27.11;21.73
72925;BME280;61070;50.794;7.054;2022-07-17T12:30:19;101943.78;;;27.17;21.06
72925;BME280;61070;50.794;7.054;2022-07-17T12:32:44;101938.13;;;27.64;21.73
72925;BME280;61070;50.794;7.054;2022-07-17T12:35:10;101934.75;;;27.16;22.75
72925;BME280;61070;50.794;7.054;2022-07-17T12:37:36;101941.69;;;27.36;23.27
72925;BME280;61070;50.794;7.054;2022-07-17T12:40:01;101937.13;;;27.37;22.73
72925;BME280;61070;50.794;7.054;2022-07-17T12:42:27;101929.66;;;26.96;23.16
72925;BME280;61070;50.794;7.054;2022-07-17T12:44:52;101932.94;;;26.71;23.05
72925;BME280;61070;50.794;7.054;2022-07-17T12:47:17;101927.00;;;27.24;22.00
72925;BME280;61070;50.794;7.054;2022-07-17T12:49:43;101929.91;;;27.50;22.19
72925;BME280;61070;50.794;7.054;2022-07-17T12:52:08;101921.38;;;27.42;22.77
72925;BME280;61070;50.794;7.054;2022-07-17T12:54:34;101922.47;;;27.68;22.26
72925;BME280;61070;50.794;7.054;2022-07-17T12:56:59;101915.63;;;27.61;22.13
72925;BME280;61070;50.794;7.054;2022-07-17T12:59:24;101916.13;;;27.53;22.48
72925;BME280;61070;50.794;7.054;2022-07-17T13:01:50;101913.09;;;27.86;22.05
72925;BME280;61070;50.794;7.054;2022-07-17T13:04:15;101913.25;;;27.97;21.63
72925;BME280;61070;50.794;7.054;2022-07-17T13:06:41;101913.25;;;28.11;21.82